Aérodrome :
LOGIN :

S'inscrire | Disclaimer

   EN    FR    IT 

 










Légende :    VFR   VFR Marginal   IFR   IFR Intensif   IFR Très Intensif
Visi : 
Plafond : 
>= 8 km
>= 3000ft
5 à 8 km
1000 à 3000 ft
1500m à 5 km
500 à 1000 ft
800 à 1500m
200 à 500 ft
< 800m
< 200 ft
Symboles :   Orages  Brouillard  Fortes neiges  Fortes précipitations  Vent > 20 kt
SIGMETs :   Divers  Orages  Givrage  Turbulence  Onde Orograph.  Cendres Volcan.






- Altitude de l'aérodrome : 1789 ft
- Code IATA : PRN


BKPR - Pristina

DERNIER METAR :
  • 280700Z VRB01KT 0150 R17/0225 FZFG BKN004 M01/M03 Q1016 TEMPO 0350 RMK 17010095

METARs EXPIRÉS :
  • 280630Z VRB01KT 0150 R17/0225 FZFG BKN004 M02/M04 Q1016 NOSIG RMK 17010095
  • 280600Z VRB01KT 0100 R17/0400 FZFG BKN004 M03/M04 Q1016 TEMPO 0300 RMK 17010095
  • 280530Z VRB01KT 0600 R17/1200VP1500 FZFG BKN005 M02/M04 Q1016 TEMPO 0300 RMK 17010095
  • 280500Z VRB01KT 0500 R17/1200VP1500 FZFG BKN004 M02/M03 Q1016 TEMPO 0300 RMK 17010095
  • 280430Z VRB01KT 0300 FZFG BKN005 M02/M04 Q1016 NOSIG RMK 17010095
  • 280400Z VRB01KT 9999 FEW050 M01/M03 Q1015 NOSIG RMK 17010095

TAF TAF BKPR
Valide du 28 à 06h jusqu'au 29 à 06h UTC


280535Z 2806/2906 20006KT 0150 FZFG BKN004
TEMPO 2806/2808 0600
BECMG 2808/2810 3000 BR SCT020 BKN070
BECMG 2809/2811 9999 NSW
TEMPO 2810/2824 22016KT



MET'MAP, la Météo Aéronautique d'un coup d'oeil ! - Copyright ORBIFLY Décembre 2007 - Disclaimer

ORBIFLY MET'MAP TEAM :

Programmation & Développement : Alexandra Zaïnal
Sur une idée originale de : Baudouin d'Aumeries
Assistance à la programmation : Marc-Olivier Méhu
Soutien technique & logistique : Manuel Goepfert

Contact : metmap@orbifly.com




SOURCES & CREDITS :

   NOAA